sensor_id;sensor_type;location;lat;lon;timestamp;P1;durP1;ratioP1;P2;durP2;ratioP2
35530;SDS011;21637;53.352;-6.356;2023-05-07T00:01:52;14.48;;;5.03;;
35530;SDS011;21637;53.352;-6.356;2023-05-07T00:04:18;11.52;;;4.60;;
35530;SDS011;21637;53.352;-6.356;2023-05-07T00:06:44;12.10;;;4.22;;
35530;SDS011;21637;53.352;-6.356;2023-05-07T00:09:10;11.45;;;4.43;;
35530;SDS011;21637;53.352;-6.356;2023-05-07T00:11:35;12.00;;;4.63;;
35530;SDS011;21637;53.352;-6.356;2023-05-07T00:14:01;11.65;;;4.90;;
35530;SDS011;21637;53.352;-6.356;2023-05-07T00:16:27;11.43;;;4.50;;
35530;SDS011;21637;53.352;-6.356;2023-05-07T00:18:53;12.52;;;4.35;;
35530;SDS011;21637;53.352;-6.356;2023-05-07T00:21:18;10.63;;;4.85;;
35530;SDS011;21637;53.352;-6.356;2023-05-07T00:23:44;12.43;;;4.97;;
35530;SDS011;21637;53.352;-6.356;2023-05-07T00:26:10;15.13;;;4.93;;
35530;SDS011;21637;53.352;-6.356;2023-05-07T00:28:35;9.45;;;4.80;;
35530;SDS011;21637;53.352;-6.356;2023-05-07T00:31:01;10.63;;;5.03;;
35530;SDS011;21637;53.352;-6.356;2023-05-07T00:33:27;10.57;;;4.32;;
35530;SDS011;21637;53.352;-6.356;2023-05-07T00:35:53;14.75;;;5.40;;
35530;SDS011;21637;53.352;-6.356;2023-05-07T00:38:21;13.20;;;5.03;;
35530;SDS011;21637;53.352;-6.356;2023-05-07T00:40:47;10.80;;;4.53;;
35530;SDS011;21637;53.352;-6.356;2023-05-07T00:43:12;11.95;;;4.63;;
35530;SDS011;21637;53.352;-6.356;2023-05-07T00:45:38;12.98;;;4.95;;
35530;SDS011;21637;53.352;-6.356;2023-05-07T00:48:04;11.90;;;4.60;;
35530;SDS011;21637;53.352;-6.356;2023-05-07T00:50:30;9.48;;;4.43;;
35530;SDS011;21637;53.352;-6.356;2023-05-07T00:52:57;9.68;;;4.43;;
35530;SDS011;21637;53.352;-6.356;2023-05-07T00:55:23;8.88;;;4.93;;
35530;SDS011;21637;53.352;-6.356;2023-05-07T00:57:50;9.15;;;5.13;;
35530;SDS011;21637;53.352;-6.356;2023-05-07T01:00:16;15.45;;;5.15;;
35530;SDS011;21637;53.352;-6.356;2023-05-07T01:02:42;13.10;;;4.72;;
35530;SDS011;21637;53.352;-6.356;2023-05-07T01:05:09;8.98;;;4.45;;
35530;SDS011;21637;53.352;-6.356;2023-05-07T01:07:39;10.05;;;4.32;;
35530;SDS011;21637;53.352;-6.356;2023-05-07T01:10:07;11.10;;;4.30;;
35530;SDS011;21637;53.352;-6.356;2023-05-07T01:12:35;14.52;;;4.75;;
35530;SDS011;21637;53.352;-6.356;2023-05-07T01:15:02;10.40;;;4.43;;
35530;SDS011;21637;53.352;-6.356;2023-05-07T01:17:29;9.82;;;4.10;;
35530;SDS011;21637;53.352;-6.356;2023-05-07T01:19:58;10.52;;;3.72;;
35530;SDS011;21637;53.352;-6.356;2023-05-07T01:22:32;11.07;;;4.10;;
35530;SDS011;21637;53.352;-6.356;2023-05-07T01:24:59;12.63;;;4.63;;
35530;SDS011;21637;53.352;-6.356;2023-05-07T01:27:27;10.25;;;4.30;;
35530;SDS011;21637;53.352;-6.356;2023-05-07T01:29:53;9.02;;;4.00;;
35530;SDS011;21637;53.352;-6.356;2023-05-07T01:32:19;12.70;;;4.20;;
35530;SDS011;21637;53.352;-6.356;2023-05-07T01:34:50;9.65;;;3.97;;
35530;SDS011;21637;53.352;-6.356;2023-05-07T01:37:17;9.68;;;4.63;;
35530;SDS011;21637;53.352;-6.356;2023-05-07T01:39:43;9.63;;;3.95;;
35530;SDS011;21637;53.352;-6.356;2023-05-07T01:42:09;8.93;;;4.25;;
35530;SDS011;21637;53.352;-6.356;2023-05-07T01:44:35;12.18;;;4.60;;
35530;SDS011;21637;53.352;-6.356;2023-05-07T01:47:01;11.00;;;4.28;;
35530;SDS011;21637;53.352;-6.356;2023-05-07T01:49:28;7.30;;;3.70;;
35530;SDS011;21637;53.352;-6.356;2023-05-07T01:51:55;7.30;;;4.10;;
35530;SDS011;21637;53.352;-6.356;2023-05-07T01:54:24;10.15;;;4.18;;
35530;SDS011;21637;53.352;-6.356;2023-05-07T01:56:53;9.23;;;4.15;;
35530;SDS011;21637;53.352;-6.356;2023-05-07T01:59:18;10.25;;;4.15;;
35530;SDS011;21637;53.352;-6.356;2023-05-07T02:01:44;12.75;;;4.53;;
35530;SDS011;21637;53.352;-6.356;2023-05-07T02:04:10;8.55;;;4.50;;
35530;SDS011;21637;53.352;-6.356;2023-05-07T02:06:36;8.65;;;3.85;;
35530;SDS011;21637;53.352;-6.356;2023-05-07T02:09:01;10.98;;;4.40;;
35530;SDS011;21637;53.352;-6.356;2023-05-07T02:11:27;8.95;;;4.30;;
35530;SDS011;21637;53.352;-6.356;2023-05-07T02:13:53;7.13;;;3.95;;
35530;SDS011;21637;53.352;-6.356;2023-05-07T02:16:19;8.65;;;4.05;;
35530;SDS011;21637;53.352;-6.356;2023-05-07T02:18:45;10.23;;;4.32;;
35530;SDS011;21637;53.352;-6.356;2023-05-07T02:21:10;9.98;;;4.20;;
35530;SDS011;21637;53.352;-6.356;2023-05-07T02:23:36;10.13;;;3.83;;
35530;SDS011;21637;53.352;-6.356;2023-05-07T02:26:03;12.07;;;3.80;;
35530;SDS011;21637;53.352;-6.356;2023-05-07T02:28:29;10.77;;;3.60;;
35530;SDS011;21637;53.352;-6.356;2023-05-07T02:30:54;11.25;;;3.78;;
35530;SDS011;21637;53.352;-6.356;2023-05-07T02:33:20;7.53;;;3.33;;
35530;SDS011;21637;53.352;-6.356;2023-05-07T02:35:46;6.72;;;3.75;;
35530;SDS011;21637;53.352;-6.356;2023-05-07T02:38:13;9.07;;;3.78;;
35530;SDS011;21637;53.352;-6.356;2023-05-07T02:40:39;8.90;;;3.75;;
35530;SDS011;21637;53.352;-6.356;2023-05-07T02:43:05;7.03;;;3.50;;
35530;SDS011;21637;53.352;-6.356;2023-05-07T02:45:31;6.38;;;3.53;;
35530;SDS011;21637;53.352;-6.356;2023-05-07T02:47:58;8.02;;;3.78;;
35530;SDS011;21637;53.352;-6.356;2023-05-07T02:50:23;8.68;;;3.88;;
35530;SDS011;21637;53.352;-6.356;2023-05-07T02:52:50;10.05;;;3.97;;
35530;SDS011;21637;53.352;-6.356;2023-05-07T02:55:16;11.02;;;3.95;;
35530;SDS011;21637;53.352;-6.356;2023-05-07T02:57:41;10.45;;;4.00;;
35530;SDS011;21637;53.352;-6.356;2023-05-07T03:00:11;9.70;;;4.10;;
35530;SDS011;21637;53.352;-6.356;2023-05-07T03:02:38;10.40;;;4.32;;
35530;SDS011;21637;53.352;-6.356;2023-05-07T03:05:04;10.27;;;4.25;;
35530;SDS011;21637;53.352;-6.356;2023-05-07T03:07:30;10.45;;;4.20;;
35530;SDS011;21637;53.352;-6.356;2023-05-07T03:09:56;7.28;;;3.90;;
35530;SDS011;21637;53.352;-6.356;2023-05-07T03:12:21;9.90;;;3.80;;
35530;SDS011;21637;53.352;-6.356;2023-05-07T03:14:47;8.77;;;4.50;;
35530;SDS011;21637;53.352;-6.356;2023-05-07T03:17:13;9.68;;;4.97;;
35530;SDS011;21637;53.352;-6.356;2023-05-07T03:19:38;5.78;;;3.67;;
35530;SDS011;21637;53.352;-6.356;2023-05-07T03:22:04;10.48;;;4.50;;
35530;SDS011;21637;53.352;-6.356;2023-05-07T03:24:30;8.30;;;4.30;;
35530;SDS011;21637;53.352;-6.356;2023-05-07T03:26:56;10.20;;;4.45;;
35530;SDS011;21637;53.352;-6.356;2023-05-07T03:29:22;8.50;;;4.25;;
35530;SDS011;21637;53.352;-6.356;2023-05-07T03:31:48;10.75;;;4.47;;
35530;SDS011;21637;53.352;-6.356;2023-05-07T03:34:14;10.43;;;4.65;;
35530;SDS011;21637;53.352;-6.356;2023-05-07T03:36:42;10.23;;;5.00;;
35530;SDS011;21637;53.352;-6.356;2023-05-07T03:39:07;14.00;;;5.55;;
35530;SDS011;21637;53.352;-6.356;2023-05-07T03:41:33;13.40;;;5.18;;
35530;SDS011;21637;53.352;-6.356;2023-05-07T03:43:59;14.25;;;5.07;;
35530;SDS011;21637;53.352;-6.356;2023-05-07T03:46:25;10.52;;;4.93;;
35530;SDS011;21637;53.352;-6.356;2023-05-07T03:48:51;8.65;;;5.35;;
35530;SDS011;21637;53.352;-6.356;2023-05-07T03:51:17;11.60;;;4.95;;
35530;SDS011;21637;53.352;-6.356;2023-05-07T03:53:43;9.57;;;4.75;;
35530;SDS011;21637;53.352;-6.356;2023-05-07T03:56:08;10.32;;;5.10;;
35530;SDS011;21637;53.352;-6.356;2023-05-07T03:58:34;13.82;;;4.88;;
35530;SDS011;21637;53.352;-6.356;2023-05-07T04:01:00;15.18;;;5.50;;
35530;SDS011;21637;53.352;-6.356;2023-05-07T04:03:26;11.13;;;5.00;;
35530;SDS011;21637;53.352;-6.356;2023-05-07T04:05:51;8.82;;;5.60;;
35530;SDS011;21637;53.352;-6.356;2023-05-07T04:08:17;9.68;;;4.85;;
35530;SDS011;21637;53.352;-6.356;2023-05-07T04:10:43;8.05;;;4.75;;
35530;SDS011;21637;53.352;-6.356;2023-05-07T04:13:08;9.82;;;4.90;;
35530;SDS011;21637;53.352;-6.356;2023-05-07T04:15:35;8.63;;;5.35;;
35530;SDS011;21637;53.352;-6.356;2023-05-07T04:18:01;12.30;;;5.18;;
35530;SDS011;21637;53.352;-6.356;2023-05-07T04:20:26;14.23;;;5.80;;
35530;SDS011;21637;53.352;-6.356;2023-05-07T04:22:52;11.57;;;5.53;;
35530;SDS011;21637;53.352;-6.356;2023-05-07T04:25:18;12.98;;;5.80;;
35530;SDS011;21637;53.352;-6.356;2023-05-07T04:27:44;10.77;;;5.13;;
35530;SDS011;21637;53.352;-6.356;2023-05-07T04:30:09;11.90;;;5.68;;
35530;SDS011;21637;53.352;-6.356;2023-05-07T04:32:36;10.48;;;5.32;;
35530;SDS011;21637;53.352;-6.356;2023-05-07T04:35:02;11.05;;;5.80;;
35530;SDS011;21637;53.352;-6.356;2023-05-07T04:37:28;10.20;;;5.90;;
35530;SDS011;21637;53.352;-6.356;2023-05-07T04:39:54;9.50;;;5.30;;
35530;SDS011;21637;53.352;-6.356;2023-05-07T04:42:20;11.10;;;5.22;;
35530;SDS011;21637;53.352;-6.356;2023-05-07T04:44:45;10.27;;;5.07;;
35530;SDS011;21637;53.352;-6.356;2023-05-07T04:47:11;10.38;;;4.97;;
35530;SDS011;21637;53.352;-6.356;2023-05-07T04:49:40;9.05;;;5.20;;
35530;SDS011;21637;53.352;-6.356;2023-05-07T04:52:06;14.93;;;6.30;;
35530;SDS011;21637;53.352;-6.356;2023-05-07T04:54:31;16.60;;;6.18;;
35530;SDS011;21637;53.352;-6.356;2023-05-07T04:56:57;11.25;;;5.93;;
35530;SDS011;21637;53.352;-6.356;2023-05-07T04:59:23;12.00;;;5.53;;
35530;SDS011;21637;53.352;-6.356;2023-05-07T05:01:48;13.43;;;5.65;;
35530;SDS011;21637;53.352;-6.356;2023-05-07T05:04:14;11.40;;;5.50;;
35530;SDS011;21637;53.352;-6.356;2023-05-07T05:06:40;11.48;;;5.65;;
35530;SDS011;21637;53.352;-6.356;2023-05-07T05:09:06;10.23;;;4.95;;
35530;SDS011;21637;53.352;-6.356;2023-05-07T05:11:31;9.10;;;4.32;;
35530;SDS011;21637;53.352;-6.356;2023-05-07T05:13:58;12.00;;;5.05;;
35530;SDS011;21637;53.352;-6.356;2023-05-07T05:16:25;9.30;;;4.80;;
35530;SDS011;21637;53.352;-6.356;2023-05-07T05:18:51;12.27;;;5.88;;
35530;SDS011;21637;53.352;-6.356;2023-05-07T05:21:19;12.45;;;5.40;;
35530;SDS011;21637;53.352;-6.356;2023-05-07T05:23:45;8.63;;;5.40;;
35530;SDS011;21637;53.352;-6.356;2023-05-07T05:26:10;11.30;;;5.60;;
35530;SDS011;21637;53.352;-6.356;2023-05-07T05:28:36;9.88;;;5.45;;
35530;SDS011;21637;53.352;-6.356;2023-05-07T05:31:02;12.00;;;5.57;;
35530;SDS011;21637;53.352;-6.356;2023-05-07T05:33:28;11.57;;;5.53;;
35530;SDS011;21637;53.352;-6.356;2023-05-07T05:35:53;8.18;;;5.28;;
35530;SDS011;21637;53.352;-6.356;2023-05-07T05:38:19;12.63;;;5.40;;
35530;SDS011;21637;53.352;-6.356;2023-05-07T05:40:46;9.88;;;4.97;;
35530;SDS011;21637;53.352;-6.356;2023-05-07T05:43:12;8.40;;;4.50;;
35530;SDS011;21637;53.352;-6.356;2023-05-07T05:45:38;9.35;;;5.10;;
35530;SDS011;21637;53.352;-6.356;2023-05-07T05:48:04;9.20;;;5.15;;
35530;SDS011;21637;53.352;-6.356;2023-05-07T05:50:30;8.20;;;4.55;;
35530;SDS011;21637;53.352;-6.356;2023-05-07T05:52:56;9.88;;;5.35;;
35530;SDS011;21637;53.352;-6.356;2023-05-07T05:55:22;8.00;;;4.78;;
35530;SDS011;21637;53.352;-6.356;2023-05-07T05:57:49;10.05;;;4.78;;
35530;SDS011;21637;53.352;-6.356;2023-05-07T06:00:15;6.50;;;4.28;;
35530;SDS011;21637;53.352;-6.356;2023-05-07T06:02:41;7.22;;;4.65;;
35530;SDS011;21637;53.352;-6.356;2023-05-07T06:05:07;8.60;;;4.50;;
35530;SDS011;21637;53.352;-6.356;2023-05-07T06:07:34;7.13;;;4.82;;
35530;SDS011;21637;53.352;-6.356;2023-05-07T06:10:00;5.93;;;4.15;;
35530;SDS011;21637;53.352;-6.356;2023-05-07T06:12:26;9.70;;;4.60;;
35530;SDS011;21637;53.352;-6.356;2023-05-07T06:14:52;6.30;;;3.63;;
35530;SDS011;21637;53.352;-6.356;2023-05-07T06:17:17;7.50;;;4.13;;
35530;SDS011;21637;53.352;-6.356;2023-05-07T06:19:43;7.40;;;3.83;;
35530;SDS011;21637;53.352;-6.356;2023-05-07T06:22:09;7.13;;;3.42;;
35530;SDS011;21637;53.352;-6.356;2023-05-07T06:24:35;5.57;;;3.55;;
35530;SDS011;21637;53.352;-6.356;2023-05-07T06:27:01;6.95;;;3.10;;
35530;SDS011;21637;53.352;-6.356;2023-05-07T06:29:26;6.93;;;3.40;;
35530;SDS011;21637;53.352;-6.356;2023-05-07T06:31:52;9.68;;;3.70;;
35530;SDS011;21637;53.352;-6.356;2023-05-07T06:34:18;8.30;;;3.40;;
35530;SDS011;21637;53.352;-6.356;2023-05-07T06:36:44;6.40;;;3.53;;
35530;SDS011;21637;53.352;-6.356;2023-05-07T06:39:10;6.60;;;3.40;;
35530;SDS011;21637;53.352;-6.356;2023-05-07T06:41:35;8.40;;;3.58;;
35530;SDS011;21637;53.352;-6.356;2023-05-07T06:44:02;5.32;;;3.42;;
35530;SDS011;21637;53.352;-6.356;2023-05-07T06:46:28;7.05;;;3.20;;
35530;SDS011;21637;53.352;-6.356;2023-05-07T06:48:54;4.53;;;2.95;;
35530;SDS011;21637;53.352;-6.356;2023-05-07T06:51:21;8.18;;;2.88;;
35530;SDS011;21637;53.352;-6.356;2023-05-07T06:53:47;5.53;;;2.85;;
35530;SDS011;21637;53.352;-6.356;2023-05-07T06:56:13;4.47;;;2.90;;
35530;SDS011;21637;53.352;-6.356;2023-05-07T06:58:39;4.18;;;2.63;;
35530;SDS011;21637;53.352;-6.356;2023-05-07T07:01:05;6.57;;;3.25;;
35530;SDS011;21637;53.352;-6.356;2023-05-07T07:03:30;6.43;;;3.08;;
35530;SDS011;21637;53.352;-6.356;2023-05-07T07:05:56;6.22;;;2.55;;
35530;SDS011;21637;53.352;-6.356;2023-05-07T07:08:22;4.65;;;2.63;;
35530;SDS011;21637;53.352;-6.356;2023-05-07T07:10:48;5.45;;;2.92;;
35530;SDS011;21637;53.352;-6.356;2023-05-07T07:13:13;7.63;;;3.40;;
35530;SDS011;21637;53.352;-6.356;2023-05-07T07:15:39;6.18;;;3.00;;
35530;SDS011;21637;53.352;-6.356;2023-05-07T07:18:05;5.55;;;2.85;;
35530;SDS011;21637;53.352;-6.356;2023-05-07T07:20:31;4.63;;;2.53;;
35530;SDS011;21637;53.352;-6.356;2023-05-07T07:22:57;5.93;;;2.70;;
35530;SDS011;21637;53.352;-6.356;2023-05-07T07:25:23;6.20;;;2.95;;
35530;SDS011;21637;53.352;-6.356;2023-05-07T07:27:49;6.18;;;2.90;;
35530;SDS011;21637;53.352;-6.356;2023-05-07T07:30:15;5.88;;;2.50;;
35530;SDS011;21637;53.352;-6.356;2023-05-07T07:32:40;9.55;;;3.35;;
35530;SDS011;21637;53.352;-6.356;2023-05-07T07:35:06;5.88;;;2.50;;
35530;SDS011;21637;53.352;-6.356;2023-05-07T07:37:33;4.60;;;2.40;;
35530;SDS011;21637;53.352;-6.356;2023-05-07T07:39:59;3.90;;;2.65;;
35530;SDS011;21637;53.352;-6.356;2023-05-07T07:42:25;5.45;;;2.60;;
35530;SDS011;21637;53.352;-6.356;2023-05-07T07:44:51;4.80;;;2.45;;
35530;SDS011;21637;53.352;-6.356;2023-05-07T07:47:17;4.28;;;2.03;;
35530;SDS011;21637;53.352;-6.356;2023-05-07T07:49:43;4.05;;;1.90;;
35530;SDS011;21637;53.352;-6.356;2023-05-07T07:52:08;5.85;;;2.30;;
35530;SDS011;21637;53.352;-6.356;2023-05-07T07:54:34;5.53;;;2.30;;
35530;SDS011;21637;53.352;-6.356;2023-05-07T07:57:00;4.55;;;2.28;;
35530;SDS011;21637;53.352;-6.356;2023-05-07T07:59:26;5.88;;;2.40;;
35530;SDS011;21637;53.352;-6.356;2023-05-07T08:01:52;5.95;;;2.25;;
35530;SDS011;21637;53.352;-6.356;2023-05-07T08:04:20;4.10;;;2.72;;
35530;SDS011;21637;53.352;-6.356;2023-05-07T08:06:46;4.20;;;2.53;;
35530;SDS011;21637;53.352;-6.356;2023-05-07T08:09:12;6.65;;;2.97;;
35530;SDS011;21637;53.352;-6.356;2023-05-07T08:11:38;5.25;;;2.80;;
35530;SDS011;21637;53.352;-6.356;2023-05-07T08:14:04;6.80;;;3.10;;
35530;SDS011;21637;53.352;-6.356;2023-05-07T08:16:30;3.13;;;2.70;;
35530;SDS011;21637;53.352;-6.356;2023-05-07T08:18:55;6.45;;;2.75;;
35530;SDS011;21637;53.352;-6.356;2023-05-07T08:21:22;5.05;;;3.05;;
35530;SDS011;21637;53.352;-6.356;2023-05-07T08:23:48;3.40;;;2.47;;
35530;SDS011;21637;53.352;-6.356;2023-05-07T08:26:14;3.55;;;2.50;;
35530;SDS011;21637;53.352;-6.356;2023-05-07T08:28:40;5.30;;;2.80;;
35530;SDS011;21637;53.352;-6.356;2023-05-07T08:31:05;8.57;;;3.20;;
35530;SDS011;21637;53.352;-6.356;2023-05-07T08:33:31;5.82;;;2.95;;
35530;SDS011;21637;53.352;-6.356;2023-05-07T08:35:57;7.32;;;2.88;;
35530;SDS011;21637;53.352;-6.356;2023-05-07T08:38:23;8.68;;;2.53;;
35530;SDS011;21637;53.352;-6.356;2023-05-07T08:40:49;5.18;;;2.50;;
35530;SDS011;21637;53.352;-6.356;2023-05-07T08:43:14;4.55;;;2.28;;
35530;SDS011;21637;53.352;-6.356;2023-05-07T08:45:41;4.18;;;2.67;;
35530;SDS011;21637;53.352;-6.356;2023-05-07T08:48:19;6.28;;;2.55;;
35530;SDS011;21637;53.352;-6.356;2023-05-07T08:50:50;4.63;;;2.45;;
35530;SDS011;21637;53.352;-6.356;2023-05-07T08:53:16;6.38;;;2.70;;
35530;SDS011;21637;53.352;-6.356;2023-05-07T08:55:42;6.15;;;2.00;;
35530;SDS011;21637;53.352;-6.356;2023-05-07T08:58:08;5.28;;;2.42;;
35530;SDS011;21637;53.352;-6.356;2023-05-07T09:00:34;5.97;;;2.38;;
35530;SDS011;21637;53.352;-6.356;2023-05-07T09:03:02;3.63;;;1.70;;
35530;SDS011;21637;53.352;-6.356;2023-05-07T09:05:28;6.80;;;1.75;;
35530;SDS011;21637;53.352;-6.356;2023-05-07T09:07:53;4.53;;;1.70;;
35530;SDS011;21637;53.352;-6.356;2023-05-07T09:10:20;3.67;;;1.80;;
35530;SDS011;21637;53.352;-6.356;2023-05-07T09:12:46;3.97;;;2.22;;
35530;SDS011;21637;53.352;-6.356;2023-05-07T09:15:13;4.22;;;2.28;;
35530;SDS011;21637;53.352;-6.356;2023-05-07T09:17:39;4.00;;;2.38;;
35530;SDS011;21637;53.352;-6.356;2023-05-07T09:20:07;3.85;;;1.88;;
35530;SDS011;21637;53.352;-6.356;2023-05-07T09:22:33;4.00;;;1.80;;
35530;SDS011;21637;53.352;-6.356;2023-05-07T09:25:01;3.33;;;1.90;;
35530;SDS011;21637;53.352;-6.356;2023-05-07T09:27:27;4.13;;;1.92;;
35530;SDS011;21637;53.352;-6.356;2023-05-07T09:29:53;1.98;;;1.27;;
35530;SDS011;21637;53.352;-6.356;2023-05-07T09:32:18;3.42;;;1.70;;
35530;SDS011;21637;53.352;-6.356;2023-05-07T09:34:44;1.60;;;1.35;;
35530;SDS011;21637;53.352;-6.356;2023-05-07T09:37:10;3.55;;;1.77;;
35530;SDS011;21637;53.352;-6.356;2023-05-07T09:39:41;2.95;;;1.50;;
35530;SDS011;21637;53.352;-6.356;2023-05-07T09:42:11;3.38;;;1.70;;
35530;SDS011;21637;53.352;-6.356;2023-05-07T09:44:39;3.75;;;1.63;;
35530;SDS011;21637;53.352;-6.356;2023-05-07T09:47:06;3.42;;;1.25;;
35530;SDS011;21637;53.352;-6.356;2023-05-07T09:49:36;1.52;;;1.33;;
35530;SDS011;21637;53.352;-6.356;2023-05-07T09:52:07;1.58;;;1.15;;
35530;SDS011;21637;53.352;-6.356;2023-05-07T09:54:35;3.38;;;1.02;;
35530;SDS011;21637;53.352;-6.356;2023-05-07T09:57:03;3.55;;;1.30;;
35530;SDS011;21637;53.352;-6.356;2023-05-07T09:59:31;4.18;;;1.50;;
35530;SDS011;21637;53.352;-6.356;2023-05-07T10:01:58;3.25;;;1.20;;
35530;SDS011;21637;53.352;-6.356;2023-05-07T10:04:27;3.55;;;1.77;;
35530;SDS011;21637;53.352;-6.356;2023-05-07T10:06:54;4.75;;;1.67;;
35530;SDS011;21637;53.352;-6.356;2023-05-07T10:09:21;2.97;;;1.70;;
35530;SDS011;21637;53.352;-6.356;2023-05-07T10:11:50;4.32;;;1.70;;
35530;SDS011;21637;53.352;-6.356;2023-05-07T10:14:16;2.67;;;1.48;;
35530;SDS011;21637;53.352;-6.356;2023-05-07T10:16:42;2.70;;;1.83;;
35530;SDS011;21637;53.352;-6.356;2023-05-07T10:19:09;3.65;;;1.70;;
35530;SDS011;21637;53.352;-6.356;2023-05-07T10:21:35;3.13;;;1.70;;
35530;SDS011;21637;53.352;-6.356;2023-05-07T10:24:05;3.30;;;1.70;;
35530;SDS011;21637;53.352;-6.356;2023-05-07T10:26:39;3.15;;;2.00;;
35530;SDS011;21637;53.352;-6.356;2023-05-07T10:35:14;4.68;;;1.67;;
35530;SDS011;21637;53.352;-6.356;2023-05-07T10:37:44;5.15;;;1.48;;
35530;SDS011;21637;53.352;-6.356;2023-05-07T10:40:11;4.85;;;1.45;;
35530;SDS011;21637;53.352;-6.356;2023-05-07T10:42:37;5.65;;;1.58;;
35530;SDS011;21637;53.352;-6.356;2023-05-07T10:45:15;3.15;;;1.67;;
35530;SDS011;21637;53.352;-6.356;2023-05-07T10:50:33;3.55;;;1.40;;
35530;SDS011;21637;53.352;-6.356;2023-05-07T10:55:46;7.32;;;1.13;;
35530;SDS011;21637;53.352;-6.356;2023-05-07T11:00:59;4.50;;;1.67;;
35530;SDS011;21637;53.352;-6.356;2023-05-07T11:03:26;3.38;;;1.60;;
35530;SDS011;21637;53.352;-6.356;2023-05-07T11:06:15;4.38;;;1.40;;
35530;SDS011;21637;53.352;-6.356;2023-05-07T11:08:52;2.75;;;1.38;;
35530;SDS011;21637;53.352;-6.356;2023-05-07T11:11:18;2.38;;;1.30;;
35530;SDS011;21637;53.352;-6.356;2023-05-07T11:13:47;4.15;;;1.58;;
35530;SDS011;21637;53.352;-6.356;2023-05-07T11:18:51;3.30;;;1.50;;
35530;SDS011;21637;53.352;-6.356;2023-05-07T11:21:32;6.30;;;1.65;;
35530;SDS011;21637;53.352;-6.356;2023-05-07T11:23:58;3.08;;;1.73;;
35530;SDS011;21637;53.352;-6.356;2023-05-07T11:26:24;4.13;;;1.83;;
35530;SDS011;21637;53.352;-6.356;2023-05-07T11:28:51;5.60;;;2.03;;
35530;SDS011;21637;53.352;-6.356;2023-05-07T11:31:23;4.47;;;1.70;;
35530;SDS011;21637;53.352;-6.356;2023-05-07T11:33:54;2.00;;;1.58;;
35530;SDS011;21637;53.352;-6.356;2023-05-07T11:36:21;5.85;;;1.90;;
35530;SDS011;21637;53.352;-6.356;2023-05-07T11:38:48;5.53;;;2.17;;
35530;SDS011;21637;53.352;-6.356;2023-05-07T11:41:15;4.57;;;2.00;;
35530;SDS011;21637;53.352;-6.356;2023-05-07T11:43:54;3.67;;;1.63;;
35530;SDS011;21637;53.352;-6.356;2023-05-07T11:46:23;3.78;;;2.35;;
35530;SDS011;21637;53.352;-6.356;2023-05-07T11:48:49;4.90;;;2.30;;
35530;SDS011;21637;53.352;-6.356;2023-05-07T11:51:19;5.53;;;2.17;;
35530;SDS011;21637;53.352;-6.356;2023-05-07T11:53:46;4.82;;;2.00;;
35530;SDS011;21637;53.352;-6.356;2023-05-07T11:56:12;4.22;;;1.90;;
35530;SDS011;21637;53.352;-6.356;2023-05-07T11:58:39;3.60;;;2.10;;
35530;SDS011;21637;53.352;-6.356;2023-05-07T12:01:09;5.18;;;2.30;;
35530;SDS011;21637;53.352;-6.356;2023-05-07T12:03:36;4.95;;;2.10;;
35530;SDS011;21637;53.352;-6.356;2023-05-07T12:06:05;3.65;;;1.92;;
35530;SDS011;21637;53.352;-6.356;2023-05-07T12:08:32;5.13;;;1.98;;
35530;SDS011;21637;53.352;-6.356;2023-05-07T12:10:58;5.03;;;2.95;;
35530;SDS011;21637;53.352;-6.356;2023-05-07T12:13:24;2.78;;;2.10;;
35530;SDS011;21637;53.352;-6.356;2023-05-07T12:15:51;5.60;;;2.45;;
35530;SDS011;21637;53.352;-6.356;2023-05-07T12:18:17;7.47;;;3.03;;
35530;SDS011;21637;53.352;-6.356;2023-05-07T12:20:44;4.45;;;2.10;;
35530;SDS011;21637;53.352;-6.356;2023-05-07T12:23:10;2.67;;;1.92;;
35530;SDS011;21637;53.352;-6.356;2023-05-07T12:25:37;4.43;;;1.92;;
35530;SDS011;21637;53.352;-6.356;2023-05-07T12:28:04;4.65;;;1.52;;
35530;SDS011;21637;53.352;-6.356;2023-05-07T12:30:36;1.33;;;1.00;;
35530;SDS011;21637;53.352;-6.356;2023-05-07T12:33:03;0.93;;;0.88;;
35530;SDS011;21637;53.352;-6.356;2023-05-07T12:35:30;1.33;;;0.90;;
35530;SDS011;21637;53.352;-6.356;2023-05-07T12:37:57;1.40;;;1.10;;
35530;SDS011;21637;53.352;-6.356;2023-05-07T12:40:29;2.83;;;0.95;;
35530;SDS011;21637;53.352;-6.356;2023-05-07T12:43:20;2.53;;;0.90;;
35530;SDS011;21637;53.352;-6.356;2023-05-07T12:45:50;1.88;;;1.00;;
35530;SDS011;21637;53.352;-6.356;2023-05-07T12:48:16;1.83;;;1.13;;
35530;SDS011;21637;53.352;-6.356;2023-05-07T12:50:44;1.55;;;0.90;;
35530;SDS011;21637;53.352;-6.356;2023-05-07T12:53:10;1.83;;;0.98;;
35530;SDS011;21637;53.352;-6.356;2023-05-07T12:55:41;1.15;;;0.80;;
35530;SDS011;21637;53.352;-6.356;2023-05-07T12:58:07;2.42;;;0.90;;
35530;SDS011;21637;53.352;-6.356;2023-05-07T13:00:39;3.42;;;1.00;;
35530;SDS011;21637;53.352;-6.356;2023-05-07T13:03:05;4.18;;;1.55;;
35530;SDS011;21637;53.352;-6.356;2023-05-07T13:05:31;1.63;;;1.20;;
35530;SDS011;21637;53.352;-6.356;2023-05-07T13:07:57;2.65;;;1.50;;
35530;SDS011;21637;53.352;-6.356;2023-05-07T13:10:24;1.63;;;0.98;;
35530;SDS011;21637;53.352;-6.356;2023-05-07T13:12:50;3.10;;;1.20;;
35530;SDS011;21637;53.352;-6.356;2023-05-07T13:15:17;2.25;;;1.17;;
35530;SDS011;21637;53.352;-6.356;2023-05-07T13:17:43;2.15;;;1.38;;
35530;SDS011;21637;53.352;-6.356;2023-05-07T13:20:09;4.30;;;1.50;;
35530;SDS011;21637;53.352;-6.356;2023-05-07T13:22:36;1.65;;;1.30;;
35530;SDS011;21637;53.352;-6.356;2023-05-07T13:25:02;2.70;;;1.27;;
35530;SDS011;21637;53.352;-6.356;2023-05-07T13:27:28;3.55;;;1.30;;
35530;SDS011;21637;53.352;-6.356;2023-05-07T13:29:55;1.58;;;1.02;;
35530;SDS011;21637;53.352;-6.356;2023-05-07T13:32:21;1.10;;;0.93;;
35530;SDS011;21637;53.352;-6.356;2023-05-07T13:34:47;2.35;;;1.20;;
35530;SDS011;21637;53.352;-6.356;2023-05-07T13:37:13;1.60;;;1.00;;
35530;SDS011;21637;53.352;-6.356;2023-05-07T13:39:39;2.90;;;1.30;;
35530;SDS011;21637;53.352;-6.356;2023-05-07T13:42:06;2.75;;;1.10;;
35530;SDS011;21637;53.352;-6.356;2023-05-07T13:44:32;3.15;;;1.27;;
35530;SDS011;21637;53.352;-6.356;2023-05-07T13:46:58;1.77;;;1.10;;
35530;SDS011;21637;53.352;-6.356;2023-05-07T13:49:24;3.40;;;1.17;;
35530;SDS011;21637;53.352;-6.356;2023-05-07T13:51:50;4.13;;;1.40;;
35530;SDS011;21637;53.352;-6.356;2023-05-07T13:54:15;2.35;;;0.73;;
35530;SDS011;21637;53.352;-6.356;2023-05-07T13:56:41;4.13;;;0.90;;
35530;SDS011;21637;53.352;-6.356;2023-05-07T13:59:07;3.20;;;1.15;;
35530;SDS011;21637;53.352;-6.356;2023-05-07T14:01:33;2.08;;;1.10;;
35530;SDS011;21637;53.352;-6.356;2023-05-07T14:03:59;1.33;;;0.95;;
35530;SDS011;21637;53.352;-6.356;2023-05-07T14:06:24;4.95;;;1.40;;
35530;SDS011;21637;53.352;-6.356;2023-05-07T14:08:50;2.65;;;1.10;;
35530;SDS011;21637;53.352;-6.356;2023-05-07T14:11:16;1.80;;;0.90;;
35530;SDS011;21637;53.352;-6.356;2023-05-07T14:13:42;2.65;;;1.00;;
35530;SDS011;21637;53.352;-6.356;2023-05-07T14:16:08;1.20;;;1.00;;
35530;SDS011;21637;53.352;-6.356;2023-05-07T14:18:34;4.45;;;1.27;;
35530;SDS011;21637;53.352;-6.356;2023-05-07T14:21:02;3.33;;;1.02;;
35530;SDS011;21637;53.352;-6.356;2023-05-07T14:23:27;1.75;;;0.98;;
35530;SDS011;21637;53.352;-6.356;2023-05-07T14:25:53;2.70;;;1.17;;
35530;SDS011;21637;53.352;-6.356;2023-05-07T14:28:19;2.28;;;1.13;;
35530;SDS011;21637;53.352;-6.356;2023-05-07T14:30:45;2.67;;;1.02;;
35530;SDS011;21637;53.352;-6.356;2023-05-07T14:33:12;2.90;;;1.15;;
35530;SDS011;21637;53.352;-6.356;2023-05-07T14:35:37;2.17;;;1.10;;
35530;SDS011;21637;53.352;-6.356;2023-05-07T14:38:03;2.47;;;0.90;;
35530;SDS011;21637;53.352;-6.356;2023-05-07T14:40:29;1.42;;;1.20;;
35530;SDS011;21637;53.352;-6.356;2023-05-07T14:42:54;2.22;;;1.17;;
35530;SDS011;21637;53.352;-6.356;2023-05-07T14:45:22;3.65;;;1.17;;